createdAt,value
2023-05-04T00:00:06.601Z,100182.69
2023-05-04T00:02:35.013Z,100180.91
2023-05-04T00:05:04.567Z,100174.47
2023-05-04T00:07:32.826Z,100177.47
2023-05-04T00:10:01.589Z,100171.47
2023-05-04T00:12:29.962Z,100172.59
2023-05-04T00:14:59.608Z,100170.44
2023-05-04T00:17:27.815Z,100163.19
2023-05-04T00:19:55.951Z,100157.78
2023-05-04T00:22:24.292Z,100146.47
2023-05-04T00:24:52.420Z,100140.13
2023-05-04T00:27:20.661Z,100147.97
2023-05-04T00:29:48.831Z,100141.91
2023-05-04T00:32:18.877Z,100134.78
2023-05-04T00:34:47.292Z,100127.97
2023-05-04T00:37:15.507Z,100121.31
2023-05-04T00:39:43.720Z,100121.22
2023-05-04T00:42:11.967Z,100123.56
2023-05-04T00:44:41.503Z,100126.53
2023-05-04T00:47:10.347Z,100107.16
2023-05-04T00:49:40.434Z,100090.53
2023-05-04T00:52:09.430Z,100084.06
2023-05-04T00:54:37.554Z,100086.31
2023-05-04T00:57:07.356Z,100085.78
2023-05-04T00:59:36.063Z,100083.50
2023-05-04T01:02:04.317Z,100085.91
2023-05-04T01:04:32.552Z,100122.03
2023-05-04T01:07:11.878Z,100132.94
2023-05-04T01:09:44.371Z,100138.06
2023-05-04T01:12:16.909Z,100130.66
2023-05-04T01:14:45.631Z,100121.19
2023-05-04T01:17:14.098Z,100112.75
2023-05-04T01:19:42.314Z,100101.88
2023-05-04T01:22:12.093Z,100097.19
2023-05-04T01:24:40.450Z,100094.66
2023-05-04T01:27:17.122Z,100103.06
2023-05-04T01:29:55.838Z,100106.28
2023-05-04T01:32:27.671Z,100094.88
2023-05-04T01:34:56.668Z,100100.88
2023-05-04T01:37:27.014Z,100080.84
2023-05-04T01:39:55.657Z,100072.88
2023-05-04T01:42:25.227Z,100074.22
2023-05-04T01:44:53.513Z,100072.56
2023-05-04T01:47:21.993Z,100074.00
2023-05-04T01:49:50.784Z,100061.03
2023-05-04T01:52:18.983Z,100060.88
2023-05-04T01:54:48.575Z,100067.78
2023-05-04T01:57:17.210Z,100062.78
2023-05-04T01:59:47.373Z,100065.72
2023-05-04T02:02:15.657Z,100063.25
2023-05-04T02:04:44.747Z,100055.31
2023-05-04T02:07:13.091Z,100051.13
2023-05-04T02:09:41.422Z,100051.38
2023-05-04T02:12:11.144Z,100035.00
2023-05-04T02:14:39.282Z,100025.75
2023-05-04T02:17:08.441Z,100009.25
2023-05-04T02:19:38.546Z,99986.63
2023-05-04T02:22:08.074Z,99997.81
2023-05-04T02:24:36.418Z,99997.38
2023-05-04T02:27:04.690Z,100003.03
2023-05-04T02:29:34.323Z,99994.56
2023-05-04T02:32:02.606Z,99985.69
2023-05-04T02:34:31.514Z,99977.09
2023-05-04T02:36:59.685Z,99980.13
2023-05-04T02:39:27.908Z,99972.19
2023-05-04T02:41:56.024Z,99966.53
2023-05-04T02:44:24.140Z,99964.31
2023-05-04T02:46:53.695Z,99966.28
2023-05-04T02:49:23.523Z,99955.75
2023-05-04T02:51:52.341Z,99945.13
2023-05-04T02:54:21.125Z,99922.09
2023-05-04T02:56:49.350Z,99923.16
2023-05-04T02:59:17.584Z,99911.44
2023-05-04T03:01:45.710Z,99905.28
2023-05-04T03:04:15.608Z,99911.84
2023-05-04T03:06:43.675Z,99921.59
2023-05-04T03:09:12.607Z,99926.41
2023-05-04T03:11:40.704Z,99930.22
2023-05-04T03:14:09.116Z,99924.31
2023-05-04T03:16:37.276Z,99939.78
2023-05-04T03:19:05.652Z,99931.75
2023-05-04T03:21:35.397Z,99924.38
2023-05-04T03:24:03.714Z,99919.56
2023-05-04T03:26:32.436Z,99898.66
2023-05-04T03:29:01.328Z,99883.22
2023-05-04T03:31:29.772Z,99887.28
2023-05-04T03:33:58.095Z,99882.69
2023-05-04T03:36:26.401Z,99898.69
2023-05-04T03:38:57.195Z,99887.69
2023-05-04T03:41:25.592Z,99872.75
2023-05-04T03:43:53.776Z,99878.00
2023-05-04T03:46:22.029Z,99889.88
2023-05-04T03:48:50.411Z,99881.44
2023-05-04T03:51:20.129Z,99884.38
2023-05-04T03:53:48.735Z,99916.47
2023-05-04T03:56:20.427Z,99921.69
2023-05-04T03:58:49.149Z,99927.56
2023-05-04T04:01:21.681Z,99919.72
2023-05-04T04:03:50.163Z,99921.09
2023-05-04T04:06:20.547Z,99916.25
2023-05-04T04:08:48.755Z,99895.56
2023-05-04T04:11:16.880Z,99893.69
2023-05-04T04:13:46.514Z,99899.22
2023-05-04T04:16:14.737Z,99895.25
2023-05-04T04:18:42.975Z,99887.81
2023-05-04T04:21:11.321Z,99880.91
2023-05-04T04:23:39.635Z,99884.88
2023-05-04T04:26:07.727Z,99881.19
2023-05-04T04:28:36.016Z,99864.56
2023-05-04T04:31:05.627Z,99857.66
2023-05-04T04:33:34.669Z,99860.50
2023-05-04T04:36:02.746Z,99874.41
2023-05-04T04:38:31.127Z,99881.19
2023-05-04T04:40:59.233Z,99870.88
2023-05-04T04:43:27.382Z,99881.66
2023-05-04T04:45:55.467Z,99893.78
2023-05-04T04:48:25.969Z,99888.19
2023-05-04T04:50:54.084Z,99898.34
2023-05-04T04:53:22.255Z,99904.94
2023-05-04T04:55:50.617Z,99908.53
2023-05-04T04:58:18.692Z,99913.75
2023-05-04T05:00:47.775Z,99902.66
2023-05-04T05:03:16.146Z,99903.94
2023-05-04T05:05:45.836Z,99902.16
2023-05-04T05:08:14.081Z,99887.91
2023-05-04T05:10:44.012Z,99892.41
2023-05-04T05:13:12.545Z,99881.84
2023-05-04T05:15:40.869Z,99898.91
2023-05-04T05:18:09.104Z,99914.47
2023-05-04T05:20:37.647Z,99905.28
2023-05-04T05:23:07.364Z,99881.13
2023-05-04T05:25:35.920Z,99905.19
2023-05-04T05:28:04.400Z,99906.84
2023-05-04T05:30:32.727Z,99909.78
2023-05-04T05:33:00.972Z,99927.25
2023-05-04T05:35:29.157Z,99921.88
2023-05-04T05:37:57.365Z,99922.78
2023-05-04T05:40:26.867Z,99920.31
2023-05-04T05:42:54.981Z,99922.34
2023-05-04T05:45:23.297Z,99916.19
2023-05-04T05:47:51.945Z,99927.13
2023-05-04T05:50:21.073Z,99924.47
2023-05-04T05:52:49.384Z,99936.16
2023-05-04T05:55:17.998Z,99925.53
2023-05-04T05:57:47.870Z,99918.41
2023-05-04T06:00:17.458Z,99929.63
2023-05-04T06:02:45.841Z,99932.84
2023-05-04T06:05:14.416Z,99939.03
2023-05-04T06:07:42.607Z,99943.41
2023-05-04T06:10:11.472Z,99952.16
2023-05-04T06:12:39.780Z,99961.50
2023-05-04T06:15:10.688Z,99963.19
2023-05-04T06:17:39.131Z,99971.50
2023-05-04T06:20:10.429Z,99984.56
2023-05-04T06:22:38.712Z,99990.53
2023-05-04T06:25:08.445Z,99996.06
2023-05-04T06:27:36.794Z,99995.28
2023-05-04T06:30:05.735Z,99999.16
2023-05-04T06:32:35.583Z,100000.00
2023-05-04T06:35:04.696Z,99995.03
2023-05-04T06:37:33.212Z,99990.19
2023-05-04T06:40:01.464Z,99990.09
2023-05-04T06:42:30.748Z,99993.13
2023-05-04T06:44:59.040Z,100009.25
2023-05-04T06:47:27.205Z,100007.22
2023-05-04T06:49:58.017Z,100010.09
2023-05-04T06:52:29.715Z,100005.59
2023-05-04T06:54:58.056Z,100013.28
2023-05-04T06:57:26.194Z,100011.22
2023-05-04T06:59:54.434Z,100013.38
2023-05-04T07:02:22.722Z,100016.41
2023-05-04T07:04:52.750Z,100009.53
2023-05-04T07:07:22.352Z,100008.28
2023-05-04T07:09:50.547Z,100001.72
2023-05-04T07:12:19.371Z,100002.47
2023-05-04T07:14:47.669Z,99988.34
2023-05-04T07:17:15.916Z,99992.66
2023-05-04T07:19:44.557Z,99983.66
2023-05-04T07:22:13.003Z,99979.16
2023-05-04T07:24:42.644Z,99973.88
2023-05-04T07:27:11.661Z,99973.03
2023-05-04T07:29:39.861Z,99972.59
2023-05-04T07:32:08.168Z,99980.50
2023-05-04T07:34:45.236Z,99982.19
2023-05-04T07:37:15.938Z,99980.59
2023-05-04T07:39:45.632Z,99987.31
2023-05-04T07:42:13.797Z,99999.38
2023-05-04T07:44:42.451Z,100002.16
2023-05-04T07:47:10.958Z,100000.03
2023-05-04T07:49:39.130Z,100005.06
2023-05-04T07:52:07.317Z,100005.78
2023-05-04T07:54:36.490Z,100009.69
2023-05-04T07:57:06.487Z,100013.81
2023-05-04T07:59:34.703Z,100021.69
2023-05-04T08:02:02.988Z,100017.81
2023-05-04T08:04:31.794Z,100018.53
2023-05-04T08:07:00.006Z,100023.38
2023-05-04T08:09:28.380Z,100017.41
2023-05-04T08:11:57.043Z,100009.91
2023-05-04T08:14:27.073Z,100007.81
2023-05-04T08:16:55.207Z,100007.25
2023-05-04T08:19:23.788Z,100016.56
2023-05-04T08:21:52.221Z,100024.47
2023-05-04T08:24:20.448Z,100019.81
2023-05-04T08:26:59.750Z,100016.50
2023-05-04T08:29:37.432Z,100018.34
2023-05-04T08:32:06.485Z,100016.72
2023-05-04T08:34:34.777Z,100017.34
2023-05-04T08:37:03.171Z,100018.66
2023-05-04T08:39:31.434Z,100020.56
2023-05-04T08:41:59.687Z,100020.16
2023-05-04T08:44:27.952Z,100016.41
2023-05-04T08:46:58.679Z,100018.13
2023-05-04T08:49:29.286Z,100009.06
2023-05-04T08:51:58.681Z,100007.22
2023-05-04T08:54:29.008Z,100010.06
2023-05-04T08:56:58.849Z,100013.09
2023-05-04T08:59:29.084Z,100008.84
2023-05-04T09:02:00.545Z,100010.94
2023-05-04T09:04:29.862Z,100008.09
2023-05-04T09:06:58.818Z,100005.22
2023-05-04T09:09:31.446Z,100003.84
2023-05-04T09:11:59.840Z,100003.94
2023-05-04T09:14:33.916Z,100013.59
2023-05-04T09:17:03.985Z,100024.19
2023-05-04T09:19:34.891Z,100003.50
2023-05-04T09:22:03.425Z,100009.59
2023-05-04T09:24:31.902Z,100011.91
2023-05-04T09:27:11.993Z,100004.31
2023-05-04T09:29:40.909Z,100019.81
2023-05-04T09:32:16.291Z,100034.59
2023-05-04T09:34:51.707Z,100025.97
2023-05-04T09:37:21.452Z,100021.28
2023-05-04T09:39:55.265Z,100031.47
2023-05-04T09:42:24.321Z,100023.53
2023-05-04T09:45:03.850Z,100033.59
2023-05-04T09:47:41.064Z,100038.94
2023-05-04T09:50:19.775Z,100041.63
2023-05-04T09:52:49.613Z,100044.25
2023-05-04T09:55:19.709Z,100037.06
2023-05-04T09:57:49.697Z,100058.63
2023-05-04T10:00:19.373Z,100051.97
2023-05-04T10:02:50.802Z,100064.06
2023-05-04T10:05:21.886Z,100058.56
2023-05-04T10:07:51.022Z,100061.25
2023-05-04T10:10:19.222Z,100069.69
2023-05-04T10:12:47.522Z,100068.94
2023-05-04T10:15:17.370Z,100077.91
2023-05-04T10:17:57.498Z,100080.31
2023-05-04T10:20:58.504Z,100092.72
2023-05-04T10:23:56.321Z,100081.53
2023-05-04T10:26:59.638Z,100101.78
2023-05-04T10:29:29.969Z,100108.88
2023-05-04T10:31:59.615Z,100108.31
2023-05-04T10:34:31.134Z,100114.19
2023-05-04T10:37:00.558Z,100123.59
2023-05-04T10:39:33.039Z,100113.16
2023-05-04T10:42:04.168Z,100125.38
2023-05-04T10:44:34.337Z,100131.44
2023-05-04T10:47:05.604Z,100133.31
2023-05-04T10:49:36.084Z,100140.28
2023-05-04T10:52:16.089Z,100152.19
2023-05-04T10:54:44.574Z,100140.09
2023-05-04T10:57:17.538Z,100142.78
2023-05-04T10:59:57.136Z,100151.34
2023-05-04T11:02:25.937Z,100143.84
2023-05-04T11:05:04.509Z,100149.16
2023-05-04T11:07:37.891Z,100144.78
2023-05-04T11:10:08.417Z,100149.00
2023-05-04T11:12:38.999Z,100155.59
2023-05-04T11:15:08.946Z,100158.03
2023-05-04T11:17:46.732Z,100153.44
2023-05-04T11:20:23.572Z,100147.03
2023-05-04T11:22:52.361Z,100151.31
2023-05-04T11:25:28.850Z,100149.94
2023-05-04T11:27:58.246Z,100169.72
2023-05-04T11:30:33.533Z,100162.34
2023-05-04T11:33:02.409Z,100160.63
2023-05-04T11:35:32.489Z,100163.06
2023-05-04T11:38:00.957Z,100165.03
2023-05-04T11:40:29.423Z,100164.13
2023-05-04T11:42:59.226Z,100168.84
2023-05-04T11:45:32.624Z,100162.81
2023-05-04T11:48:01.999Z,100163.09
2023-05-04T11:50:32.765Z,100169.91
2023-05-04T11:53:09.407Z,100167.28
2023-05-04T11:55:38.751Z,100163.72
2023-05-04T11:58:08.812Z,100171.09
2023-05-04T12:00:39.503Z,100179.56
2023-05-04T12:03:09.458Z,100176.13
2023-05-04T12:05:39.202Z,100172.84
2023-05-04T12:08:12.503Z,100169.09
2023-05-04T12:10:41.589Z,100170.72
2023-05-04T12:13:17.669Z,100178.56
2023-05-04T12:15:46.160Z,100176.97
2023-05-04T12:18:29.581Z,100186.59
2023-05-04T12:21:09.183Z,100178.19
2023-05-04T12:23:37.763Z,100178.47
2023-05-04T12:26:06.175Z,100183.03
2023-05-04T12:28:34.935Z,100182.00
2023-05-04T12:31:04.859Z,100185.44
2023-05-04T12:33:33.092Z,100176.59
2023-05-04T12:36:04.704Z,100187.22
2023-05-04T12:38:33.973Z,100188.34
2023-05-04T12:41:04.530Z,100188.38
2023-05-04T12:43:33.548Z,100179.31
2023-05-04T12:46:02.193Z,100179.50
2023-05-04T12:48:33.076Z,100185.59
2023-05-04T12:51:04.335Z,100180.19
2023-05-04T12:53:33.122Z,100190.78
2023-05-04T12:56:02.200Z,100181.25
2023-05-04T12:58:31.312Z,100188.63
2023-05-04T13:00:59.956Z,100188.91
2023-05-04T13:03:28.628Z,100191.84
2023-05-04T13:05:58.170Z,100190.03
2023-05-04T13:08:27.784Z,100188.00
2023-05-04T13:10:55.972Z,100196.34
2023-05-04T13:13:28.596Z,100197.72
2023-05-04T13:15:57.326Z,100192.88
2023-05-04T13:18:27.545Z,100204.91
2023-05-04T13:20:56.137Z,100207.03
2023-05-04T13:23:24.394Z,100204.06
2023-05-04T13:25:54.316Z,100211.50
2023-05-04T13:28:22.422Z,100199.22
2023-05-04T13:30:50.724Z,100199.69
2023-05-04T13:33:29.460Z,100200.13
2023-05-04T13:35:59.198Z,100202.56
2023-05-04T13:38:27.504Z,100199.28
2023-05-04T13:40:57.135Z,100214.50
2023-05-04T13:43:25.704Z,100207.84
2023-05-04T13:45:53.899Z,100190.59
2023-05-04T13:48:22.194Z,100213.47
2023-05-04T13:50:50.317Z,100196.63
2023-05-04T13:53:18.510Z,100205.47
2023-05-04T13:55:46.765Z,100214.25
2023-05-04T13:58:16.347Z,100216.63
2023-05-04T14:00:44.492Z,100212.06
2023-05-04T14:03:13.101Z,100222.66
2023-05-04T14:05:41.707Z,100222.06
2023-05-04T14:08:09.839Z,100229.91
2023-05-04T14:10:38.674Z,100229.09
2023-05-04T14:13:07.066Z,100224.28
2023-05-04T14:15:36.765Z,100230.75
2023-05-04T14:18:05.218Z,100233.81
2023-05-04T14:20:33.415Z,100242.63
2023-05-04T14:23:01.624Z,100232.06
2023-05-04T14:25:29.775Z,100236.78
2023-05-04T14:27:57.963Z,100238.56
2023-05-04T14:30:26.633Z,100247.56
2023-05-04T14:32:56.906Z,100249.03
2023-05-04T14:35:25.672Z,100257.94
2023-05-04T14:37:53.807Z,100256.59
2023-05-04T14:40:21.985Z,100259.00
2023-05-04T14:42:50.160Z,100261.97
2023-05-04T14:45:18.631Z,100263.31
2023-05-04T14:47:47.369Z,100269.78
2023-05-04T14:50:16.923Z,100270.59
2023-05-04T14:52:45.128Z,100279.16
2023-05-04T14:55:13.399Z,100281.25
2023-05-04T14:57:44.103Z,100278.81
2023-05-04T15:00:13.607Z,100280.00
2023-05-04T15:02:41.781Z,100284.50
2023-05-04T15:05:12.775Z,100285.63
2023-05-04T15:07:42.392Z,100289.72
2023-05-04T15:10:11.325Z,100300.31
2023-05-04T15:12:39.664Z,100304.25
2023-05-04T15:15:08.885Z,100308.06
2023-05-04T15:17:37.024Z,100308.25
2023-05-04T15:20:05.885Z,100314.34
2023-05-04T15:22:34.194Z,100305.66
2023-05-04T15:25:04.208Z,100322.81
2023-05-04T15:27:32.354Z,100328.81
2023-05-04T15:30:00.611Z,100326.91
2023-05-04T15:32:29.198Z,100335.06
2023-05-04T15:35:05.326Z,100335.28
2023-05-04T15:37:34.534Z,100329.63
2023-05-04T15:40:04.889Z,100325.19
2023-05-04T15:42:33.395Z,100328.25
2023-05-04T15:45:02.070Z,100329.69
2023-05-04T15:47:32.074Z,100333.81
2023-05-04T15:50:00.499Z,100321.41
2023-05-04T15:52:28.833Z,100328.72
2023-05-04T15:54:57.450Z,100328.66
2023-05-04T15:57:27.429Z,100332.75
2023-05-04T15:59:55.942Z,100337.47
2023-05-04T16:02:24.296Z,100340.53
2023-05-04T16:04:52.697Z,100344.09
2023-05-04T16:07:21.060Z,100348.41
2023-05-04T16:09:49.314Z,100349.53
2023-05-04T16:12:18.367Z,100351.91
2023-05-04T16:14:49.336Z,100354.59
2023-05-04T16:17:17.662Z,100359.09
2023-05-04T16:19:45.973Z,100354.13
2023-05-04T16:22:14.814Z,100365.94
2023-05-04T16:24:43.061Z,100360.91
2023-05-04T16:27:11.252Z,100357.66
2023-05-04T16:29:39.445Z,100361.75
2023-05-04T16:32:09.554Z,100360.06
2023-05-04T16:34:38.390Z,100370.75
2023-05-04T16:37:08.378Z,100366.41
2023-05-04T16:39:38.153Z,100361.66
2023-05-04T16:42:06.713Z,100364.81
2023-05-04T16:44:34.838Z,100371.38
2023-05-04T16:47:03.354Z,100364.31
2023-05-04T16:49:32.945Z,100364.72
2023-05-04T16:52:01.174Z,100356.63
2023-05-04T16:54:29.287Z,100358.91
2023-05-04T16:56:57.443Z,100362.66
2023-05-04T16:59:25.760Z,100365.19
2023-05-04T17:01:54.088Z,100371.53
2023-05-04T17:04:22.407Z,100374.81
2023-05-04T17:06:51.990Z,100373.09
2023-05-04T17:09:20.143Z,100375.66
2023-05-04T17:11:48.378Z,100381.78
2023-05-04T17:14:16.871Z,100379.47
2023-05-04T17:16:45.527Z,100380.38
2023-05-04T17:19:14.287Z,100370.78
2023-05-04T17:21:42.633Z,100379.56
2023-05-04T17:24:12.646Z,100382.56
2023-05-04T17:26:40.824Z,100383.97
2023-05-04T17:29:09.054Z,100380.03
2023-05-04T17:31:37.434Z,100374.34
2023-05-04T17:34:05.819Z,100377.03
2023-05-04T17:36:34.081Z,100373.03
2023-05-04T17:39:02.226Z,100374.41
2023-05-04T17:41:31.914Z,100375.28
2023-05-04T17:44:00.129Z,100373.66
2023-05-04T17:46:28.619Z,100377.22
2023-05-04T17:48:56.784Z,100385.91
2023-05-04T17:51:25.097Z,100383.94
2023-05-04T17:53:53.322Z,100385.91
2023-05-04T17:56:22.018Z,100386.72
2023-05-04T17:58:51.642Z,100383.94
2023-05-04T18:01:19.855Z,100386.50
2023-05-04T18:03:48.146Z,100386.06
2023-05-04T18:06:16.770Z,100383.25
2023-05-04T18:08:45.000Z,100387.66
2023-05-04T18:11:13.599Z,100387.66
2023-05-04T18:13:42.124Z,100384.19
2023-05-04T18:16:11.807Z,100382.16
2023-05-04T18:18:40.710Z,100385.13
2023-05-04T18:21:08.929Z,100390.41
2023-05-04T18:23:37.150Z,100378.22
2023-05-04T18:26:05.411Z,100380.75
2023-05-04T18:28:33.519Z,100388.50
2023-05-04T18:31:01.976Z,100390.69
2023-05-04T18:33:31.642Z,100393.78
2023-05-04T18:35:59.873Z,100393.06
2023-05-04T18:38:28.568Z,100395.22
2023-05-04T18:40:56.822Z,100398.94
2023-05-04T18:43:25.104Z,100398.13
2023-05-04T18:45:53.341Z,100393.66
2023-05-04T18:48:22.090Z,100398.22
2023-05-04T18:50:57.486Z,100394.75
2023-05-04T18:53:26.484Z,100394.06
2023-05-04T18:56:02.647Z,100401.19
2023-05-04T18:58:31.213Z,100397.66
2023-05-04T19:00:59.787Z,100411.38
2023-05-04T19:03:28.310Z,100410.53
2023-05-04T19:05:58.073Z,100409.06
2023-05-04T19:08:26.546Z,100415.56
2023-05-04T19:10:59.289Z,100413.47
2023-05-04T19:13:27.614Z,100419.78
2023-05-04T19:15:55.846Z,100421.56
2023-05-04T19:18:24.788Z,100416.03
2023-05-04T19:20:53.146Z,100410.34
2023-05-04T19:23:23.104Z,100415.69
2023-05-04T19:25:51.250Z,100431.00
2023-05-04T19:28:19.889Z,100433.00
2023-05-04T19:30:49.100Z,100435.44
2023-05-04T19:33:17.902Z,100427.38
2023-05-04T19:35:46.924Z,100434.69
2023-05-04T19:38:15.155Z,100426.09
2023-05-04T19:40:44.779Z,100432.91
2023-05-04T19:43:12.966Z,100441.00
2023-05-04T19:45:41.011Z,100449.56
2023-05-04T19:48:10.219Z,100443.66
2023-05-04T19:50:38.636Z,100441.06
2023-05-04T19:53:06.788Z,100445.84
2023-05-04T19:55:35.215Z,100444.47
2023-05-04T19:58:05.221Z,100449.75
2023-05-04T20:00:33.768Z,100452.31
2023-05-04T20:03:01.997Z,100449.09
2023-05-04T20:05:30.229Z,100449.09
2023-05-04T20:07:58.523Z,100458.63
2023-05-04T20:10:26.936Z,100455.00
2023-05-04T20:12:55.087Z,100455.47
2023-05-04T20:15:24.593Z,100455.63
2023-05-04T20:17:52.829Z,100455.09
2023-05-04T20:20:22.107Z,100460.38
2023-05-04T20:22:52.451Z,100459.72
2023-05-04T20:25:21.030Z,100464.47
2023-05-04T20:27:52.227Z,100461.47
2023-05-04T20:30:20.403Z,100459.72
2023-05-04T20:32:50.559Z,100459.47
2023-05-04T20:35:18.961Z,100464.84
2023-05-04T20:37:47.883Z,100461.91
2023-05-04T20:40:17.245Z,100458.47
2023-05-04T20:42:45.751Z,100459.69
2023-05-04T20:45:14.065Z,100468.88
2023-05-04T20:47:42.783Z,100470.06
2023-05-04T20:50:12.705Z,100472.19
2023-05-04T20:52:40.809Z,100471.84
2023-05-04T20:55:09.745Z,100469.94
2023-05-04T20:57:38.290Z,100479.09
2023-05-04T21:00:08.128Z,100469.72
2023-05-04T21:02:37.285Z,100464.81
2023-05-04T21:05:06.465Z,100478.53
2023-05-04T21:07:36.455Z,100476.78
2023-05-04T21:10:05.180Z,100467.09
2023-05-04T21:12:33.572Z,100476.31
2023-05-04T21:15:01.703Z,100480.63
2023-05-04T21:17:29.842Z,100468.50
2023-05-04T21:19:57.949Z,100471.16
2023-05-04T21:22:26.256Z,100470.94
2023-05-04T21:24:55.833Z,100479.28
2023-05-04T21:27:24.050Z,100478.22
2023-05-04T21:29:52.137Z,100472.00
2023-05-04T21:32:20.927Z,100469.72
2023-05-04T21:34:53.230Z,100474.75
2023-05-04T21:37:21.258Z,100475.56
2023-05-04T21:39:53.795Z,100477.16
2023-05-04T21:42:23.885Z,100473.38
2023-05-04T21:44:55.172Z,100478.94
2023-05-04T21:47:23.432Z,100476.31
2023-05-04T21:49:52.148Z,100478.44
2023-05-04T21:52:20.678Z,100466.25
2023-05-04T21:54:48.872Z,100484.69
2023-05-04T21:57:17.548Z,100480.31
2023-05-04T21:59:49.616Z,100472.00
2023-05-04T22:02:18.001Z,100479.56
2023-05-04T22:04:46.166Z,100481.59
2023-05-04T22:07:15.620Z,100472.00
2023-05-04T22:09:44.010Z,100485.06
2023-05-04T22:12:12.150Z,100480.69
2023-05-04T22:14:42.187Z,100490.53
2023-05-04T22:17:12.174Z,100483.41
2023-05-04T22:19:40.671Z,100477.72
2023-05-04T22:22:08.846Z,100473.41
2023-05-04T22:24:36.927Z,100479.09
2023-05-04T22:27:05.197Z,100470.88
2023-05-04T22:29:35.280Z,100473.38
2023-05-04T22:32:03.787Z,100472.97
2023-05-04T22:34:33.348Z,100475.69
2023-05-04T22:37:03.245Z,100474.56
2023-05-04T22:39:31.898Z,100475.16
2023-05-04T22:41:59.961Z,100479.78
2023-05-04T22:44:28.184Z,100480.47
2023-05-04T22:46:56.311Z,100481.25
2023-05-04T22:49:24.540Z,100480.47
2023-05-04T22:51:54.264Z,100478.78
2023-05-04T22:54:22.620Z,100478.25
2023-05-04T22:56:51.083Z,100486.22
2023-05-04T22:59:19.277Z,100486.34
2023-05-04T23:01:47.750Z,100495.91
2023-05-04T23:04:16.492Z,100482.72
2023-05-04T23:06:44.981Z,100488.63
2023-05-04T23:09:15.321Z,100496.88
2023-05-04T23:11:43.882Z,100485.69
2023-05-04T23:14:13.055Z,100487.94
2023-05-04T23:16:41.209Z,100486.22
2023-05-04T23:19:10.061Z,100484.78
2023-05-04T23:21:39.699Z,100497.13
2023-05-04T23:24:08.107Z,100491.59
2023-05-04T23:26:37.698Z,100502.41
2023-05-04T23:29:05.867Z,100493.38
2023-05-04T23:31:34.176Z,100493.84
2023-05-04T23:34:02.861Z,100491.81
2023-05-04T23:36:31.011Z,100491.75
2023-05-04T23:38:59.279Z,100489.97
2023-05-04T23:41:27.484Z,100480.78
2023-05-04T23:43:59.447Z,100490.38
2023-05-04T23:46:27.794Z,100482.94
2023-05-04T23:48:56.182Z,100476.44
2023-05-04T23:51:24.276Z,100484.63
2023-05-04T23:53:53.229Z,100482.88
2023-05-04T23:56:21.781Z,100478.31
2023-05-04T23:58:50.016Z,100481.69
